Time;durP1;ratioP1;P1;durP2;ratioP2;P2;SDS_P1;SDS_P2;PMS_P1;PMS_P2;Temp;Humidity;BMP_temperature;BMP_pressure;BME280_temperature;BME280_humidity;BME280_pressure;Samples;Min_cycle;Max_cycle;Signal;HPM_P1;HPM_P2
2022/04/09 00:00:22;;;;;;;;;;;;;;;21.66;26.65;97004.03;5019339;28;1022;-74
2022/04/09 00:02:48;;;;;;;;;;;;;;;21.65;26.47;97005.28;5036906;28;2051;-74
2022/04/09 00:05:15;;;;;;;;;;;;;;;21.26;27.16;97004.84;5017542;28;995;-75
2022/04/09 00:07:41;;;;;;;;;;;;;;;21.13;27.38;96992.84;5036724;28;935;-75
2022/04/09 00:10:06;;;;;;;;;;;;;;;21.04;27.31;97004.16;5036595;28;904;-74
2022/04/09 00:12:32;;;;;;;;;;;;;;;20.85;27.71;96996.84;5036524;28;959;-74
2022/04/09 00:14:57;;;;;;;;;;;;;;;21.45;27.10;96999.25;5036737;28;922;-74
2022/04/09 00:17:23;;;;;;;;;;;;;;;21.78;26.59;96994.59;5036635;28;893;-74
2022/04/09 00:19:48;;;;;;;;;;;;;;;21.45;26.87;96987.94;4985083;28;1029;-75
2022/04/09 00:22:14;;;;;;;;;;;;;;;21.22;27.15;96990.06;5036306;28;1918;-74
2022/04/09 00:24:40;;;;;;;;;;;;;;;21.20;27.25;96984.09;5036196;28;939;-75
2022/04/09 00:27:05;;;;;;;;;;;;;;;21.21;27.22;96990.53;5036306;28;919;-74
2022/04/09 00:29:31;;;;;;;;;;;;;;;21.58;26.50;96992.22;5036191;28;905;-74
2022/04/09 00:31:56;;;;;;;;;;;;;;;21.73;26.54;96981.06;5036478;28;905;-74
2022/04/09 00:34:22;;;;;;;;;;;;;;;21.36;26.73;96979.44;5036289;28;919;-75
2022/04/09 00:36:47;;;;;;;;;;;;;;;20.93;27.19;96947.22;5036231;28;1102;-74
2022/04/09 00:39:13;;;;;;;;;;;;;;;21.15;27.31;96970.56;5036227;28;943;-74
2022/04/09 00:41:40;;;;;;;;;;;;;;;21.08;27.38;96974.44;5000974;28;1996;-74
2022/04/09 00:44:14;;;;;;;;;;;;;;;21.39;27.03;96967.19;4980981;28;1161;-75
2022/04/09 00:46:39;;;;;;;;;;;;;;;21.63;26.63;96956.84;4997466;28;1139;-74
2022/04/09 00:49:05;;;;;;;;;;;;;;;21.62;26.42;96943.94;5013568;28;1026;-74
2022/04/09 00:51:30;;;;;;;;;;;;;;;21.25;27.14;96946.69;4974333;28;1367;-75
2022/04/09 00:53:56;;;;;;;;;;;;;;;21.25;27.10;96945.91;4974465;28;1038;-74
2022/04/09 00:56:23;;;;;;;;;;;;;;;21.05;27.41;96949.16;4974419;28;1066;-74
2022/04/09 00:58:54;;;;;;;;;;;;;;;20.94;27.67;96949.59;4974800;28;1125;-74
2022/04/09 01:01:20;;;;;;;;;;;;;;;21.30;26.90;96956.66;4958538;28;1705;-74
2022/04/09 01:03:45;;;;;;;;;;;;;;;21.59;26.48;96953.38;4974673;28;1991;-75
2022/04/09 01:06:11;;;;;;;;;;;;;;;21.53;26.59;96950.38;4974321;28;962;-74
2022/04/09 01:08:36;;;;;;;;;;;;;;;21.24;27.08;96956.44;4973940;28;1167;-74
2022/04/09 01:11:02;;;;;;;;;;;;;;;21.04;27.37;96953.25;4958156;28;1168;-75
2022/04/09 01:13:28;;;;;;;;;;;;;;;20.98;27.26;96946.59;4955240;29;982;-75
2022/04/09 01:15:54;;;;;;;;;;;;;;;21.36;26.67;96937.00;4971172;28;959;-74
2022/04/09 01:18:19;;;;;;;;;;;;;;;21.81;25.99;96948.38;4958269;28;1295;-74
2022/04/09 01:20:56;;;;;;;;;;;;;;;21.67;26.00;96943.31;4958046;28;1215;-74
2022/04/09 01:23:22;;;;;;;;;;;;;;;21.25;26.97;96946.69;4974278;28;1922;-75
2022/04/09 01:25:47;;;;;;;;;;;;;;;21.22;26.84;96946.84;4974298;28;1119;-75
2022/04/09 01:28:13;;;;;;;;;;;;;;;21.04;27.31;96936.28;4958107;28;1082;-75
2022/04/09 01:30:38;;;;;;;;;;;;;;;21.21;27.08;96929.09;4958206;28;972;-75
2022/04/09 01:33:04;;;;;;;;;;;;;;;21.74;26.29;96926.00;4958143;28;951;-74
2022/04/09 01:35:29;;;;;;;;;;;;;;;21.90;25.75;96926.97;4974190;28;1024;-75
2022/04/09 01:37:55;;;;;;;;;;;;;;;21.97;25.69;96921.78;4974028;28;1023;-74
2022/04/09 01:40:20;;;;;;;;;;;;;;;21.54;26.19;96920.03;4974082;28;1363;-74
2022/04/09 01:42:48;;;;;;;;;;;;;;;21.30;26.82;96915.00;4973777;28;1956;-74
2022/04/09 01:45:14;;;;;;;;;;;;;;;21.12;27.13;96931.88;4947783;29;1349;-75
2022/04/09 01:47:42;;;;;;;;;;;;;;;20.97;27.25;96908.28;4935443;29;1327;-74
2022/04/09 01:50:09;;;;;;;;;;;;;;;20.98;27.47;96915.50;4935468;29;1110;-74
2022/04/09 01:52:34;;;;;;;;;;;;;;;21.01;27.26;96903.25;4916427;29;1086;-75
2022/04/09 01:55:00;;;;;;;;;;;;;;;21.63;26.26;96903.06;4916703;29;1456;-74
2022/04/09 01:57:25;;;;;;;;;;;;;;;21.76;26.31;96900.06;4916677;29;945;-75
2022/04/09 01:59:52;;;;;;;;;;;;;;;21.40;26.61;96890.31;4916356;29;1585;-74
2022/04/09 02:02:18;;;;;;;;;;;;;;;21.13;26.90;96891.03;4916480;29;1965;-74
2022/04/09 02:04:44;;;;;;;;;;;;;;;20.97;27.35;96896.97;4916309;29;1484;-74
2022/04/09 02:07:09;;;;;;;;;;;;;;;20.75;27.54;96895.00;4916500;29;1255;-74
2022/04/09 02:09:35;;;;;;;;;;;;;;;21.43;26.53;96892.19;4916445;29;1105;-75
2022/04/09 02:12:00;;;;;;;;;;;;;;;21.54;26.49;96888.91;4916327;29;1128;-74
2022/04/09 02:14:25;;;;;;;;;;;;;;;21.66;26.14;96896.47;4916389;29;1137;-74
2022/04/09 02:16:51;;;;;;;;;;;;;;;21.31;26.67;96893.13;4945491;29;1088;-74
2022/04/09 02:19:18;;;;;;;;;;;;;;;21.06;26.80;96888.50;4935084;29;1321;-74
2022/04/09 02:21:43;;;;;;;;;;;;;;;20.98;27.04;96892.88;4922336;29;2103;-74
2022/04/09 02:24:09;;;;;;;;;;;;;;;20.97;27.32;96896.97;4971416;28;1053;-74
2022/04/09 02:26:35;;;;;;;;;;;;;;;21.50;26.53;96893.91;5016280;28;1573;-74
2022/04/09 02:29:00;;;;;;;;;;;;;;;21.69;26.31;96895.50;4957846;29;1128;-74
2022/04/09 02:31:26;;;;;;;;;;;;;;;21.45;26.54;96880.41;4958159;29;958;-74
2022/04/09 02:33:53;;;;;;;;;;;;;;;21.27;26.68;96881.16;4957969;29;1076;-74
2022/04/09 02:36:21;;;;;;;;;;;;;;;21.12;27.08;96880.19;4926726;29;1757;-75
2022/04/09 02:38:47;;;;;;;;;;;;;;;21.05;27.34;96886.94;4941913;29;1153;-74
2022/04/09 02:41:12;;;;;;;;;;;;;;;21.40;26.74;96886.69;4957934;29;948;-75
2022/04/09 02:43:38;;;;;;;;;;;;;;;21.67;26.16;96883.09;4941676;29;1971;-74
2022/04/09 02:46:04;;;;;;;;;;;;;;;21.46;26.43;96887.66;4925955;29;1226;-74
2022/04/09 02:48:34;;;;;;;;;;;;;;;21.25;26.87;96890.13;4941543;29;1121;-74
2022/04/09 02:50:59;;;;;;;;;;;;;;;21.18;26.70;96890.41;4956847;28;1370;-75
2022/04/09 02:53:25;;;;;;;;;;;;;;;21.12;27.00;96892.28;4960755;28;1137;-73
2022/04/09 02:55:52;;;;;;;;;;;;;;;21.14;27.08;96886.97;4960726;28;1041;-75
2022/04/09 02:58:18;;;;;;;;;;;;;;;21.51;26.52;96878.53;4957499;29;1338;-75
2022/04/09 03:00:47;;;;;;;;;;;;;;;21.79;26.25;96885.75;4957234;29;1068;-74
2022/04/09 03:03:14;;;;;;;;;;;;;;;21.44;26.53;96882.44;4957279;29;1906;-74
2022/04/09 03:05:45;;;;;;;;;;;;;;;21.10;26.86;96877.84;4961230;28;1077;-75
2022/04/09 03:08:11;;;;;;;;;;;;;;;21.02;27.30;96882.22;4977054;28;1017;-74
2022/04/09 03:10:36;;;;;;;;;;;;;;;21.14;27.31;96878.47;4976667;28;1015;-75
2022/04/09 03:13:04;;;;;;;;;;;;;;;21.49;26.68;96878.19;4976727;28;1736;-75
2022/04/09 03:15:29;;;;;;;;;;;;;;;21.76;26.11;96872.56;4976155;28;1208;-74
2022/04/09 03:17:55;;;;;;;;;;;;;;;21.32;26.89;96878.50;4956585;29;1307;-74
2022/04/09 03:20:23;;;;;;;;;;;;;;;21.29;26.55;96879.41;4941099;29;1354;-74
2022/04/09 03:22:49;;;;;;;;;;;;;;;21.07;27.08;96878.75;4941179;29;2210;-75
2022/04/09 03:25:27;;;;;;;;;;;;;;;21.24;26.91;96867.94;4940916;29;1122;-75
2022/04/09 03:27:54;;;;;;;;;;;;;;;21.62;26.24;96861.88;4937637;29;1182;-74
2022/04/09 03:30:20;;;;;;;;;;;;;;;21.60;26.38;96858.69;4937674;29;1104;-74
2022/04/09 03:32:47;;;;;;;;;;;;;;;21.21;26.81;96861.19;4902142;29;1100;-74
2022/04/09 03:35:18;;;;;;;;;;;;;;;21.08;27.03;96857.69;4905431;29;1457;-74
2022/04/09 03:37:46;;;;;;;;;;;;;;;21.16;27.00;96853.31;4918379;29;1962;-74
2022/04/09 03:40:14;;;;;;;;;;;;;;;21.19;27.12;96855.22;4903023;29;1363;-74
2022/04/09 03:42:40;;;;;;;;;;;;;;;21.79;26.30;96848.16;4918335;29;1907;-74
2022/04/09 03:45:06;;;;;;;;;;;;;;;22.03;25.66;96846.22;4918556;29;1254;-74
2022/04/09 03:47:33;;;;;;;;;;;;;;;21.46;26.57;96848.03;4918402;29;1101;-74
2022/04/09 03:50:01;;;;;;;;;;;;;;;21.16;26.73;96842.00;4944182;28;1261;-74
2022/04/09 03:52:27;;;;;;;;;;;;;;;20.92;27.30;96843.84;4959862;28;1116;-74
2022/04/09 03:54:52;;;;;;;;;;;;;;;20.91;27.53;96836.63;4959688;28;1248;-75
2022/04/09 03:57:19;;;;;;;;;;;;;;;21.34;26.99;96832.75;4937236;29;1112;-74
2022/04/09 03:59:51;;;;;;;;;;;;;;;21.68;26.19;96839.38;4927697;28;1233;-74
2022/04/09 04:02:17;;;;;;;;;;;;;;;21.52;26.13;96827.09;4975876;28;1985;-75
2022/04/09 04:04:43;;;;;;;;;;;;;;;21.10;27.08;96835.41;4959640;28;1217;-75
2022/04/09 04:07:09;;;;;;;;;;;;;;;21.04;27.09;96840.13;4959221;28;1557;-74
2022/04/09 04:09:37;;;;;;;;;;;;;;;20.97;27.38;96837.56;4959311;28;1163;-74
2022/04/09 04:12:03;;;;;;;;;;;;;;;21.42;26.58;96836.09;4943297;28;1309;-75
2022/04/09 04:14:30;;;;;;;;;;;;;;;21.72;26.04;96832.28;4959086;28;1220;-74
2022/04/09 04:16:57;;;;;;;;;;;;;;;21.61;26.25;96834.81;4959334;28;1196;-74
2022/04/09 04:19:23;;;;;;;;;;;;;;;21.36;26.84;96832.31;4958814;28;1310;-74
2022/04/09 04:21:51;;;;;;;;;;;;;;;21.14;26.84;96844.53;4958749;28;1902;-75
2022/04/09 04:24:17;;;;;;;;;;;;;;;21.13;27.18;96831.63;4959229;28;1129;-74
2022/04/09 04:26:43;;;;;;;;;;;;;;;21.28;27.48;96838.22;4936404;29;1112;-74
2022/04/09 04:29:16;;;;;;;;;;;;;;;21.64;26.97;96835.91;4936883;29;1419;-74
2022/04/09 04:31:42;;;;;;;;;;;;;;;21.87;26.61;96842.97;4916052;29;1224;-75
2022/04/09 04:34:08;;;;;;;;;;;;;;;21.37;27.08;96845.19;4910577;29;1268;-75
2022/04/09 04:36:38;;;;;;;;;;;;;;;21.18;27.72;96850.81;4909733;29;1306;-74
2022/04/09 04:39:04;;;;;;;;;;;;;;;21.15;27.48;96851.75;4931620;29;1409;-74
2022/04/09 04:41:30;;;;;;;;;;;;;;;21.19;27.66;96852.41;4929735;29;1248;-75
2022/04/09 04:43:56;;;;;;;;;;;;;;;21.57;27.29;96848.34;4944929;28;1910;-74
2022/04/09 04:46:27;;;;;;;;;;;;;;;21.64;27.16;96839.50;4929993;29;1187;-75
2022/04/09 04:48:54;;;;;;;;;;;;;;;21.40;27.45;96845.06;4914395;29;1239;-74
2022/04/09 04:51:22;;;;;;;;;;;;;;;21.29;27.71;96844.69;4928296;29;1280;-75
2022/04/09 04:53:47;;;;;;;;;;;;;;;21.18;27.71;96839.50;4926619;29;1286;-75
2022/04/09 04:56:13;;;;;;;;;;;;;;;21.13;28.07;96847.81;4910656;29;1650;-74
2022/04/09 04:58:45;;;;;;;;;;;;;;;21.07;27.91;96839.16;4944624;28;1410;-74
2022/04/09 05:01:10;;;;;;;;;;;;;;;20.97;28.44;96843.22;4964567;28;1336;-75
2022/04/09 05:03:41;;;;;;;;;;;;;;;21.20;28.26;96859.63;4916472;29;1972;-75
2022/04/09 05:06:36;;;;;;;;;;;;;;;21.70;27.43;96857.44;4854516;29;1153;-75
2022/04/09 05:09:03;;;;;;;;;;;;;;;21.55;27.59;96860.16;4869482;29;1282;-74
2022/04/09 05:11:37;;;;;;;;;;;;;;;21.19;28.04;96857.25;4870792;29;1618;-74
2022/04/09 05:14:07;;;;;;;;;;;;;;;21.28;28.05;96860.88;4869825;29;1584;-74
2022/04/09 05:16:37;;;;;;;;;;;;;;;21.16;28.22;96864.63;4870234;29;1296;-74
2022/04/09 05:19:05;;;;;;;;;;;;;;;21.30;28.28;96858.41;4868944;29;1134;-75
2022/04/09 05:21:33;;;;;;;;;;;;;;;21.57;27.77;96854.00;4869304;29;1415;-74
2022/04/09 05:23:59;;;;;;;;;;;;;;;21.74;27.46;96851.63;4870334;29;1978;-74
2022/04/09 05:26:24;;;;;;;;;;;;;;;21.36;27.85;96843.63;4841874;29;1362;-74
2022/04/09 05:28:53;;;;;;;;;;;;;;;21.13;28.42;96847.81;4841720;29;1206;-74
2022/04/09 05:31:28;;;;;;;;;;;;;;;21.01;28.53;96850.31;4841903;29;1350;-75
2022/04/09 05:33:55;;;;;;;;;;;;;;;21.14;28.49;96833.22;4835285;29;1545;-75
2022/04/09 05:36:21;;;;;;;;;;;;;;;20.96;28.64;96838.84;4850920;29;1290;-75
2022/04/09 05:38:49;;;;;;;;;;;;;;;21.18;28.34;96838.69;4851887;29;1404;-74
2022/04/09 05:41:15;;;;;;;;;;;;;;;21.75;27.44;96834.16;4887394;29;1292;-74
2022/04/09 05:43:40;;;;;;;;;;;;;;;21.53;27.79;96831.50;4946601;28;2228;-75
2022/04/09 05:46:06;;;;;;;;;;;;;;;21.23;28.05;96840.91;4964898;28;1422;-74
2022/04/09 05:48:35;;;;;;;;;;;;;;;21.13;28.23;96834.44;4942053;29;1137;-75
2022/04/09 05:51:01;;;;;;;;;;;;;;;21.07;28.50;96839.16;4941791;28;1253;-74
2022/04/09 05:53:31;;;;;;;;;;;;;;;21.62;27.79;96833.56;4948908;28;1223;-75
2022/04/09 05:55:58;;;;;;;;;;;;;;;21.78;27.63;96833.22;4943340;29;1319;-74
2022/04/09 05:58:30;;;;;;;;;;;;;;;21.36;27.93;96832.31;4920300;29;1110;-74
2022/04/09 06:01:00;;;;;;;;;;;;;;;21.24;28.43;96831.16;4920235;29;1206;-75
2022/04/09 06:03:32;;;;;;;;;;;;;;;21.16;28.55;96830.69;4946163;29;2069;-74
2022/04/09 06:05:58;;;;;;;;;;;;;;;21.16;28.40;96824.25;4958372;29;1246;-75
2022/04/09 06:08:33;;;;;;;;;;;;;;;21.21;28.13;96827.25;4942406;29;1272;-74
2022/04/09 06:11:02;;;;;;;;;;;;;;;21.47;28.09;96821.31;4942334;29;1149;-74
2022/04/09 06:13:28;;;;;;;;;;;;;;;21.81;27.39;96828.63;4977501;28;1267;-74
2022/04/09 06:15:54;;;;;;;;;;;;;;;21.42;27.93;96836.88;4888440;29;1123;-74
2022/04/09 06:18:23;;;;;;;;;;;;;;;21.11;28.66;96834.16;4938958;29;1285;-74
2022/04/09 06:20:49;;;;;;;;;;;;;;;21.19;28.53;96838.25;4901026;29;984;-75
2022/04/09 06:23:17;;;;;;;;;;;;;;;21.13;28.61;96842.94;4901098;29;1911;-75
2022/04/09 06:25:42;;;;;;;;;;;;;;;21.58;27.99;96838.59;4900443;29;1116;-75
2022/04/09 06:28:12;;;;;;;;;;;;;;;21.73;27.55;96845.19;4901185;29;1395;-75
2022/04/09 06:30:41;;;;;;;;;;;;;;;21.57;27.93;96834.19;4919649;29;1339;-75
2022/04/09 06:33:16;;;;;;;;;;;;;;;21.41;28.32;96846.63;4934019;29;1207;-75
2022/04/09 06:35:41;;;;;;;;;;;;;;;21.41;28.31;96852.28;4901603;29;1040;-74
2022/04/09 06:38:12;;;;;;;;;;;;;;;21.12;28.62;96847.03;4938646;29;1376;-75
2022/04/09 06:40:39;;;;;;;;;;;;;;;21.14;28.58;96843.72;4938613;29;1177;-75
2022/04/09 06:43:05;;;;;;;;;;;;;;;21.21;28.51;96849.88;4938569;29;1989;-74
2022/04/09 06:46:03;;;;;;;;;;;;;;;21.00;28.93;96851.56;4933521;29;974;-74
2022/04/09 06:48:31;;;;;;;;;;;;;;;21.23;28.63;96857.88;4900408;29;1134;-75
2022/04/09 06:51:19;;;;;;;;;;;;;;;21.77;27.64;96851.47;4858509;29;1230;-75
2022/04/09 06:53:45;;;;;;;;;;;;;;;21.78;27.89;96858.69;4841759;29;1143;-75
2022/04/09 06:56:11;;;;;;;;;;;;;;;21.38;28.25;96853.22;4864326;29;1283;-74
2022/04/09 06:58:36;;;;;;;;;;;;;;;21.26;28.42;96856.94;4844684;29;1078;-74
2022/04/09 07:01:02;;;;;;;;;;;;;;;21.19;28.75;96858.06;4844551;29;1293;-74
2022/04/09 07:03:30;;;;;;;;;;;;;;;21.24;28.83;96859.44;4844577;29;1974;-74
2022/04/09 07:05:56;;;;;;;;;;;;;;;21.16;28.62;96855.38;4844680;29;1035;-74
2022/04/09 07:08:22;;;;;;;;;;;;;;;21.10;28.67;96848.78;4832673;29;1251;-74
2022/04/09 07:10:47;;;;;;;;;;;;;;;21.06;28.88;96848.91;4826788;29;1006;-74
2022/04/09 07:13:13;;;;;;;;;;;;;;;21.13;28.96;96856.28;4826363;29;1108;-72
2022/04/09 07:15:38;;;;;;;;;;;;;;;21.12;28.95;96847.03;4826114;29;1034;-73
2022/04/09 07:18:04;;;;;;;;;;;;;;;21.40;28.66;96856.38;4826210;29;998;-74
2022/04/09 07:20:29;;;;;;;;;;;;;;;21.69;28.13;96847.38;4827020;29;1039;-74
2022/04/09 07:22:55;;;;;;;;;;;;;;;21.79;28.06;96854.59;4897867;29;2005;-72
2022/04/09 07:25:20;;;;;;;;;;;;;;;21.43;28.50;96844.09;4900240;29;1131;-72
2022/04/09 07:27:47;;;;;;;;;;;;;;;21.48;28.18;96845.50;4933626;29;1021;-74
2022/04/09 07:30:21;;;;;;;;;;;;;;;21.25;28.75;96850.50;4959781;28;892;-74
2022/04/09 07:32:47;;;;;;;;;;;;;;;21.21;28.65;96855.53;4959814;29;963;-75
2022/04/09 07:35:14;;;;;;;;;;;;;;;21.20;28.73;96851.13;4941298;29;988;-74
2022/04/09 07:37:43;;;;;;;;;;;;;;;21.17;28.73;96856.94;4959699;28;1039;-74
2022/04/09 07:40:09;;;;;;;;;;;;;;;21.10;29.16;96843.13;4959459;28;1065;-74
2022/04/09 07:42:34;;;;;;;;;;;;;;;21.27;29.16;96847.19;4959429;28;1981;-75
2022/04/09 07:45:00;;;;;;;;;;;;;;;21.66;28.31;96839.84;4959379;28;1198;-75
2022/04/09 07:47:25;;;;;;;;;;;;;;;21.87;27.97;96837.31;4959469;29;1082;-72
2022/04/09 07:49:51;;;;;;;;;;;;;;;21.42;28.77;96847.41;4967478;28;1062;-74
2022/04/09 07:52:16;;;;;;;;;;;;;;;21.23;29.07;96841.69;4997769;28;1001;-75
2022/04/09 07:54:42;;;;;;;;;;;;;;;21.38;28.82;96830.56;4997648;28;950;-74
2022/04/09 07:57:07;;;;;;;;;;;;;;;21.21;28.95;96832.13;4997797;28;929;-74
2022/04/09 07:59:33;;;;;;;;;;;;;;;21.27;28.78;96831.00;4997648;28;1135;-74
2022/04/09 08:01:58;;;;;;;;;;;;;;;21.14;29.04;96826.75;4997958;28;1981;-75
2022/04/09 08:04:24;;;;;;;;;;;;;;;21.07;29.34;96833.50;4997970;28;955;-75
2022/04/09 08:06:49;;;;;;;;;;;;;;;21.15;29.39;96829.13;4997721;28;986;-75
2022/04/09 08:09:15;;;;;;;;;;;;;;;21.32;29.52;96821.16;4997639;28;983;-74
2022/04/09 08:11:40;;;;;;;;;;;;;;;21.77;28.26;96830.88;4997582;28;988;-74
2022/04/09 08:14:06;;;;;;;;;;;;;;;21.71;28.60;96824.25;4997163;28;1089;-75
2022/04/09 08:16:31;;;;;;;;;;;;;;;21.33;29.24;96823.50;4998034;28;939;-75
2022/04/09 08:18:57;;;;;;;;;;;;;;;21.52;28.96;96817.84;4997047;28;799;-75
2022/04/09 08:21:22;;;;;;;;;;;;;;;21.26;29.18;96820.97;4997482;28;962;-74
2022/04/09 08:23:48;;;;;;;;;;;;;;;21.38;28.79;96829.78;4997072;28;1915;-75
2022/04/09 08:26:14;;;;;;;;;;;;;;;21.32;29.04;96816.28;4997345;28;1198;-74
2022/04/09 08:28:39;;;;;;;;;;;;;;;21.31;29.03;96822.41;4997077;28;848;-74
2022/04/09 08:31:06;;;;;;;;;;;;;;;21.20;29.22;96820.03;4997288;28;937;-74
2022/04/09 08:33:31;;;;;;;;;;;;;;;21.26;29.85;96823.00;4996554;28;893;-73
2022/04/09 08:35:57;;;;;;;;;;;;;;;21.65;28.75;96818.44;4997151;28;936;-74
2022/04/09 08:38:22;;;;;;;;;;;;;;;21.83;28.58;96823.28;4997150;28;910;-74
2022/04/09 08:40:47;;;;;;;;;;;;;;;21.59;28.41;96815.47;4962532;28;1030;-74
2022/04/09 08:43:14;;;;;;;;;;;;;;;21.08;29.27;96818.09;4996749;28;1906;-74
2022/04/09 08:45:42;;;;;;;;;;;;;;;21.09;29.54;96816.88;4955879;29;1089;-74
2022/04/09 08:48:08;;;;;;;;;;;;;;;21.01;29.29;96818.41;4936457;29;1018;-74
2022/04/09 08:50:35;;;;;;;;;;;;;;;21.02;29.31;96811.50;4936159;29;1151;-74
2022/04/09 08:53:06;;;;;;;;;;;;;;;20.95;29.40;96809.00;4936666;29;1021;-74
2022/04/09 08:55:33;;;;;;;;;;;;;;;21.52;28.64;96812.97;4935974;29;1118;-75
2022/04/09 08:57:58;;;;;;;;;;;;;;;21.88;28.11;96816.22;4936550;29;1017;-74
2022/04/09 09:00:23;;;;;;;;;;;;;;;21.40;28.58;96810.28;4936301;29;944;-74
2022/04/09 09:02:53;;;;;;;;;;;;;;;21.46;28.51;96811.25;4936441;29;1915;-74
2022/04/09 09:05:31;;;;;;;;;;;;;;;21.29;28.96;96811.50;4936381;29;1110;-74
2022/04/09 09:07:56;;;;;;;;;;;;;;;21.13;29.02;96813.88;4920163;29;979;-74
2022/04/09 09:10:22;;;;;;;;;;;;;;;21.00;29.31;96817.63;4936209;29;1150;-74
2022/04/09 09:13:06;;;;;;;;;;;;;;;21.10;29.13;96809.97;4936545;29;961;-74
2022/04/09 09:15:44;;;;;;;;;;;;;;;21.18;29.28;96810.41;4936851;29;970;-74
2022/04/09 09:18:11;;;;;;;;;;;;;;;21.64;28.15;96810.44;4954979;29;997;-74
2022/04/09 09:20:39;;;;;;;;;;;;;;;21.51;28.29;96810.63;4954851;29;978;-74
2022/04/09 09:23:04;;;;;;;;;;;;;;;21.33;28.78;96812.19;4955277;29;1974;-73
2022/04/09 09:25:30;;;;;;;;;;;;;;;21.20;28.80;96805.88;4975526;28;950;-74
2022/04/09 09:27:57;;;;;;;;;;;;;;;20.95;29.44;96803.34;4979047;28;1049;-74
2022/04/09 09:30:22;;;;;;;;;;;;;;;21.04;28.96;96806.19;4996275;28;1024;-74
2022/04/09 09:33:04;;;;;;;;;;;;;;;21.08;29.05;96796.25;4996328;28;967;-74
2022/04/09 09:35:45;;;;;;;;;;;;;;;21.09;29.21;96802.72;4996144;28;922;-74
2022/04/09 09:38:17;;;;;;;;;;;;;;;20.97;29.26;96806.47;4996488;28;829;-74
2022/04/09 09:40:43;;;;;;;;;;;;;;;21.01;28.97;96801.47;4996170;28;870;-74
2022/04/09 09:43:15;;;;;;;;;;;;;;;21.44;28.65;96799.59;4996055;28;1911;-74
2022/04/09 09:45:43;;;;;;;;;;;;;;;21.64;28.16;96802.72;4977733;28;930;-74
2022/04/09 09:48:19;;;;;;;;;;;;;;;21.25;28.60;96788.28;4996178;28;924;-74
2022/04/09 09:50:45;;;;;;;;;;;;;;;21.18;28.96;96802.72;4996033;28;1034;-74
2022/04/09 09:53:10;;;;;;;;;;;;;;;21.11;29.06;96790.94;4995846;28;946;-74
2022/04/09 09:55:45;;;;;;;;;;;;;;;21.08;29.12;96789.81;4995924;28;975;-74
2022/04/09 09:58:11;;;;;;;;;;;;;;;21.11;28.96;96793.78;4995859;28;1083;-74
2022/04/09 10:00:37;;;;;;;;;;;;;;;21.02;29.22;96783.22;4978749;28;925;-74
2022/04/09 10:03:03;;;;;;;;;;;;;;;21.37;28.52;96778.06;4995951;28;1981;-74
2022/04/09 10:05:28;;;;;;;;;;;;;;;21.74;28.11;96773.13;4954708;29;1117;-74
2022/04/09 10:07:54;;;;;;;;;;;;;;;21.62;28.06;96788.25;4954647;28;1198;-74
2022/04/09 10:10:22;;;;;;;;;;;;;;;21.31;28.50;96775.09;4954620;29;1085;-74
2022/04/09 10:12:47;;;;;;;;;;;;;;;21.19;28.95;96780.88;4954596;28;979;-74
2022/04/09 10:15:13;;;;;;;;;;;;;;;21.14;28.78;96773.81;4965400;28;2002;-74
2022/04/09 10:17:39;;;;;;;;;;;;;;;21.19;28.83;96770.38;4938561;29;1000;-74
2022/04/09 10:20:04;;;;;;;;;;;;;;;21.19;28.80;96773.19;4954616;28;1001;-74
2022/04/09 10:22:35;;;;;;;;;;;;;;;21.09;29.23;96774.44;4954276;29;1978;-74
2022/04/09 10:25:00;;;;;;;;;;;;;;;20.91;28.93;96780.88;4934616;29;1128;-74
2022/04/09 10:27:33;;;;;;;;;;;;;;;21.20;28.92;96763.44;4908012;29;1291;-74
2022/04/09 10:29:58;;;;;;;;;;;;;;;21.73;27.88;96765.91;4923934;29;1200;-74
2022/04/09 10:32:42;;;;;;;;;;;;;;;21.72;28.06;96770.00;4925732;29;1407;-74
2022/04/09 10:35:27;;;;;;;;;;;;;;;21.41;28.47;96758.13;4924517;29;1385;-74
2022/04/09 10:38:16;;;;;;;;;;;;;;;21.25;28.85;96759.97;4981817;28;1159;-74
2022/04/09 10:40:50;;;;;;;;;;;;;;;21.14;28.85;96753.22;4963836;28;1182;-75
2022/04/09 10:43:21;;;;;;;;;;;;;;;21.06;29.04;96752.75;4967116;28;1922;-74
2022/04/09 10:46:02;;;;;;;;;;;;;;;21.16;28.91;96754.31;4966799;28;1203;-74
2022/04/09 10:48:31;;;;;;;;;;;;;;;21.17;28.83;96758.72;4974998;28;1188;-74
2022/04/09 10:50:57;;;;;;;;;;;;;;;21.26;28.86;96750.22;4965912;28;1238;-74
2022/04/09 10:53:23;;;;;;;;;;;;;;;21.73;27.86;96751.75;4966052;28;1423;-73
2022/04/09 10:56:06;;;;;;;;;;;;;;;21.90;27.92;96757.03;4967202;28;1207;-74
2022/04/09 10:58:32;;;;;;;;;;;;;;;21.90;27.55;96762.72;4971534;28;1140;-74
2022/04/09 11:00:57;;;;;;;;;;;;;;;21.54;28.54;96764.38;4977328;28;1270;-74
2022/04/09 11:03:28;;;;;;;;;;;;;;;21.39;28.34;96750.06;4976764;28;1891;-74
2022/04/09 11:06:12;;;;;;;;;;;;;;;21.31;28.84;96746.00;4976942;28;1072;-74
2022/04/09 11:08:38;;;;;;;;;;;;;;;21.26;28.87;96750.22;4976831;28;855;-74
2022/04/09 11:11:04;;;;;;;;;;;;;;;21.18;29.06;96748.97;4976632;28;1425;-74
2022/04/09 11:13:29;;;;;;;;;;;;;;;21.13;28.89;96746.78;4976784;28;956;-74
2022/04/09 11:15:55;;;;;;;;;;;;;;;20.94;29.39;96746.00;4976738;28;1031;-74
2022/04/09 11:18:21;;;;;;;;;;;;;;;21.11;28.97;96742.84;5006886;28;963;-74
2022/04/09 11:20:46;;;;;;;;;;;;;;;21.11;29.16;96731.53;4975826;28;1038;-74
2022/04/09 11:23:12;;;;;;;;;;;;;;;21.16;28.83;96733.75;4938455;28;1911;-74
2022/04/09 11:25:42;;;;;;;;;;;;;;;21.27;28.77;96732.00;4918814;29;1065;-74
2022/04/09 11:28:12;;;;;;;;;;;;;;;21.61;28.39;96727.25;4919294;29;935;-74
2022/04/09 11:30:38;;;;;;;;;;;;;;;21.55;28.21;96732.78;4918700;29;1093;-74
2022/04/09 11:33:04;;;;;;;;;;;;;;;21.40;28.73;96725.38;4918850;29;1019;-74
2022/04/09 11:35:32;;;;;;;;;;;;;;;21.37;28.61;96720.69;4918951;29;940;-74
2022/04/09 11:37:58;;;;;;;;;;;;;;;21.28;28.72;96708.09;4918944;29;1004;-74
2022/04/09 11:40:23;;;;;;;;;;;;;;;21.21;29.02;96713.31;4918984;29;1171;-75
2022/04/09 11:42:52;;;;;;;;;;;;;;;21.28;28.72;96713.75;4918684;29;1981;-74
2022/04/09 11:45:24;;;;;;;;;;;;;;;21.17;29.01;96707.81;4887230;29;982;-74
2022/04/09 11:47:50;;;;;;;;;;;;;;;21.09;29.24;96709.41;4918544;29;1045;-74
2022/04/09 11:50:16;;;;;;;;;;;;;;;21.02;29.17;96712.53;4918871;29;1133;-74
2022/04/09 11:52:41;;;;;;;;;;;;;;;21.07;29.18;96700.59;4951468;28;931;-74
2022/04/09 11:55:10;;;;;;;;;;;;;;;21.12;28.90;96707.66;4956827;29;1029;-74
2022/04/09 11:57:36;;;;;;;;;;;;;;;21.08;29.14;96702.16;4993599;28;990;-74
2022/04/09 12:00:02;;;;;;;;;;;;;;;21.09;29.00;96700.91;4956570;29;989;-74
2022/04/09 12:02:37;;;;;;;;;;;;;;;21.30;28.81;96699.19;4956533;29;1906;-74
2022/04/09 12:05:03;;;;;;;;;;;;;;;21.57;28.31;96689.84;4940295;29;1013;-74
2022/04/09 12:07:28;;;;;;;;;;;;;;;21.53;28.17;96689.22;4937017;29;1041;-74
2022/04/09 12:09:54;;;;;;;;;;;;;;;21.29;28.79;96684.19;4905784;29;1035;-74
2022/04/09 12:12:20;;;;;;;;;;;;;;;21.25;28.52;96677.94;4937155;29;1023;-74
2022/04/09 12:14:54;;;;;;;;;;;;;;;21.12;28.88;96670.88;4937107;29;955;-74
2022/04/09 12:17:22;;;;;;;;;;;;;;;21.10;28.73;96671.38;4937241;29;1129;-74
2022/04/09 12:19:48;;;;;;;;;;;;;;;21.04;29.16;96664.78;4937428;29;1032;-74
2022/04/09 12:22:20;;;;;;;;;;;;;;;21.06;28.95;96670.75;4899147;29;1903;-74
2022/04/09 12:24:52;;;;;;;;;;;;;;;21.00;29.00;96664.16;4898695;29;1149;-74
2022/04/09 12:27:18;;;;;;;;;;;;;;;21.01;28.87;96663.66;4861399;29;1054;-74
2022/04/09 12:29:47;;;;;;;;;;;;;;;21.03;28.98;96658.31;4861846;29;1056;-74
2022/04/09 12:32:13;;;;;;;;;;;;;;;21.05;28.78;96655.81;4879332;29;1149;-74
2022/04/09 12:34:57;;;;;;;;;;;;;;;21.05;28.98;96655.03;4879933;29;979;-74
2022/04/09 12:37:23;;;;;;;;;;;;;;;21.02;29.12;96658.78;4880204;29;993;-74
2022/04/09 12:39:48;;;;;;;;;;;;;;;21.37;28.40;96647.13;4880397;29;1235;-74
2022/04/09 12:42:15;;;;;;;;;;;;;;;20.34;27.95;96435.00;4880176;29;1907;-74
2022/04/09 12:44:40;;;;;;;;;;;;;;;21.47;28.11;96640.19;4880280;29;1017;-75
2022/04/09 12:47:06;;;;;;;;;;;;;;;21.42;28.36;96635.94;4879791;29;982;-75
2022/04/09 12:49:36;;;;;;;;;;;;;;;21.25;28.83;96637.56;4912132;29;1131;-75
2022/04/09 12:52:01;;;;;;;;;;;;;;;21.22;28.85;96624.34;4898596;29;947;-75
2022/04/09 12:54:31;;;;;;;;;;;;;;;21.10;28.90;96634.59;4898374;29;980;-75
2022/04/09 12:57:03;;;;;;;;;;;;;;;21.05;29.04;96630.38;4898695;29;1140;-74
2022/04/09 12:59:28;;;;;;;;;;;;;;;21.23;28.59;96629.53;4922259;29;1086;-75
2022/04/09 13:01:54;;;;;;;;;;;;;;;21.14;28.76;96635.22;4955348;29;1118;-74